CEB912 RPVE-RPLL
Flight info
| Callsign | CEB912 |
|---|---|
| Flight time | 0h 52m |
| Altitude | 20000 |
| Route | MINOR8A MINOR B473 LAIYA LAIYA1A |
| Aircraft | A21N/M-SDE2E3FGHIRWXY/LB1 |
Departure
| Time | 2026-04-22 17:54 |
|---|---|
| Airport | Godofredo P. Ramos Airport (RPVE) |
Arrival
| Time | 2026-04-22 18:47 |
|---|---|
| Airport | Ninoy Aquino International Airport (RPLL) |
| Time | Latitude | Longitude | Altitude | Speed | Heading |
|---|---|---|---|---|---|
| 2026-04-22 17:35 | 11.92656 | 121.96338 | 26 ft | 0 kts | 153° |
| 2026-04-22 17:41 | 11.92661 | 121.96338 | 26 ft | 2 kts | 117° |
| 2026-04-22 17:41 | 11.92666 | 121.96326 | 28 ft | 2 kts | 21° |
| 2026-04-22 17:41 | 11.92664 | 121.96322 | 28 ft | 0 kts | 351° |
| 2026-04-22 17:44 | 11.92670 | 121.96321 | 29 ft | 4 kts | 348° |
| 2026-04-22 17:44 | 11.92677 | 121.96296 | 28 ft | 6 kts | 272° |
| 2026-04-22 17:44 | 11.92656 | 121.96237 | 27 ft | 10 kts | 242° |
| 2026-04-22 17:44 | 11.92653 | 121.96206 | 27 ft | 1 kts | 277° |
| 2026-04-22 17:45 | 11.92669 | 121.96190 | 27 ft | 5 kts | 317° |
| 2026-04-22 17:45 | 11.92676 | 121.96186 | 26 ft | 0 kts | 332° |
| 2026-04-22 17:46 | 11.92692 | 121.96178 | 29 ft | 7 kts | 332° |
| 2026-04-22 17:46 | 11.92737 | 121.96154 | 26 ft | 5 kts | 333° |
| 2026-04-22 17:46 | 11.92739 | 121.96153 | 26 ft | 0 kts | 333° |
| 2026-04-22 17:50 | 11.92740 | 121.96152 | 26 ft | 2 kts | 333° |
| 2026-04-22 17:51 | 11.92792 | 121.96124 | 27 ft | 11 kts | 329° |
| 2026-04-22 17:51 | 11.92769 | 121.96033 | 27 ft | 30 kts | 238° |
| 2026-04-22 17:51 | 11.92651 | 121.95786 | 27 ft | 42 kts | 240° |
| 2026-04-22 17:51 | 11.92528 | 121.95540 | 26 ft | 37 kts | 243° |
| 2026-04-22 17:52 | 11.92404 | 121.95293 | 26 ft | 41 kts | 243° |
| 2026-04-22 17:52 | 11.92349 | 121.95184 | 26 ft | 12 kts | 243° |
| 2026-04-22 17:52 | 11.92302 | 121.95089 | 26 ft | 18 kts | 243° |
| 2026-04-22 17:52 | 11.92242 | 121.95035 | 27 ft | 9 kts | 234° |
| 2026-04-22 17:53 | 11.92255 | 121.94998 | 27 ft | 2 kts | 326° |
| 2026-04-22 17:53 | 11.92262 | 121.95004 | 27 ft | 2 kts | 25° |
| 2026-04-22 17:53 | 11.92270 | 121.95025 | 26 ft | 0 kts | 64° |
| 2026-04-22 17:54 | 11.92273 | 121.95030 | 26 ft | 9 kts | 64° |
| 2026-04-22 17:54 | 11.92483 | 121.95455 | 27 ft | 120 kts | 63° |
| 2026-04-22 17:54 | 11.92971 | 121.96433 | 307 ft | 173 kts | 64° |
| 2026-04-22 17:54 | 11.93527 | 121.97581 | 1069 ft | 188 kts | 66° |
| 2026-04-22 17:55 | 11.93896 | 121.98403 | 1653 ft | 196 kts | 67° |
| 2026-04-22 17:55 | 11.94700 | 122.00155 | 2694 ft | 213 kts | 65° |
| 2026-04-22 17:55 | 11.95422 | 122.01575 | 3441 ft | 233 kts | 63° |
| 2026-04-22 17:55 | 11.96429 | 122.02910 | 4087 ft | 237 kts | 42° |
| 2026-04-22 17:56 | 11.97848 | 122.03759 | 4740 ft | 242 kts | 26° |
| 2026-04-22 17:56 | 11.99390 | 122.04457 | 5389 ft | 241 kts | 27° |
| 2026-04-22 17:56 | 12.00929 | 122.05193 | 6058 ft | 251 kts | 28° |
| 2026-04-22 17:56 | 12.02573 | 122.06022 | 6720 ft | 274 kts | 28° |
| 2026-04-22 17:57 | 12.04311 | 122.06916 | 7357 ft | 283 kts | 28° |
| 2026-04-22 17:57 | 12.06078 | 122.07828 | 8002 ft | 287 kts | 28° |
| 2026-04-22 17:57 | 12.07874 | 122.08756 | 8666 ft | 291 kts | 28° |
| 2026-04-22 17:57 | 12.09680 | 122.09687 | 9333 ft | 295 kts | 27° |
| 2026-04-22 17:58 | 12.11531 | 122.10636 | 9997 ft | 298 kts | 27° |
| 2026-04-22 17:58 | 12.13395 | 122.11585 | 10621 ft | 301 kts | 27° |
| 2026-04-22 17:58 | 12.15297 | 122.12548 | 11263 ft | 304 kts | 26° |
| 2026-04-22 17:58 | 12.17200 | 122.13509 | 11917 ft | 307 kts | 26° |
| 2026-04-22 17:59 | 12.19133 | 122.14483 | 12583 ft | 311 kts | 26° |
| 2026-04-22 17:59 | 12.21086 | 122.15467 | 13261 ft | 315 kts | 26° |
| 2026-04-22 17:59 | 12.23034 | 122.16450 | 13912 ft | 318 kts | 27° |
| 2026-04-22 17:59 | 12.25027 | 122.17456 | 14523 ft | 321 kts | 27° |
| 2026-04-22 18:00 | 12.26386 | 122.18142 | 14939 ft | 323 kts | 27° |
| 2026-04-22 18:00 | 12.29071 | 122.19498 | 15783 ft | 328 kts | 27° |
| 2026-04-22 18:00 | 12.31133 | 122.20540 | 16439 ft | 331 kts | 27° |
| 2026-04-22 18:00 | 12.33210 | 122.21591 | 17107 ft | 334 kts | 28° |
| 2026-04-22 18:01 | 12.35391 | 122.22425 | 17792 ft | 338 kts | 11° |
| 2026-04-22 18:01 | 12.37748 | 122.22447 | 18439 ft | 343 kts | 350° |
| 2026-04-22 18:01 | 12.39988 | 122.21588 | 19041 ft | 346 kts | 329° |
| 2026-04-22 18:01 | 12.41991 | 122.20204 | 19655 ft | 349 kts | 324° |
| 2026-04-22 18:02 | 12.43963 | 122.18684 | 20287 ft | 351 kts | 323° |
| 2026-04-22 18:02 | 12.45910 | 122.17194 | 20916 ft | 354 kts | 324° |
| 2026-04-22 18:02 | 12.47923 | 122.15713 | 21569 ft | 357 kts | 325° |
| 2026-04-22 18:02 | 12.49970 | 122.14258 | 22231 ft | 360 kts | 326° |
| 2026-04-22 18:03 | 12.52053 | 122.12811 | 22917 ft | 363 kts | 327° |
| 2026-04-22 18:03 | 12.54165 | 122.11358 | 23528 ft | 367 kts | 327° |
| 2026-04-22 18:03 | 12.56296 | 122.09896 | 23763 ft | 368 kts | 327° |
| 2026-04-22 18:03 | 12.58423 | 122.08432 | 23867 ft | 369 kts | 327° |
| 2026-04-22 18:04 | 12.60554 | 122.06962 | 23891 ft | 369 kts | 327° |
| 2026-04-22 18:04 | 12.62683 | 122.05488 | 23892 ft | 369 kts | 327° |
| 2026-04-22 18:04 | 12.64804 | 122.04015 | 23896 ft | 369 kts | 326° |
| 2026-04-22 18:04 | 12.66932 | 122.02537 | 23890 ft | 369 kts | 326° |
| 2026-04-22 18:05 | 12.69058 | 122.01059 | 23890 ft | 369 kts | 326° |
| 2026-04-22 18:05 | 12.71181 | 121.99582 | 23893 ft | 369 kts | 326° |
| 2026-04-22 18:05 | 12.73276 | 121.98125 | 23893 ft | 368 kts | 326° |
| 2026-04-22 18:05 | 12.75395 | 121.96651 | 23891 ft | 368 kts | 326° |
| 2026-04-22 18:06 | 12.77497 | 121.95187 | 23894 ft | 368 kts | 326° |
| 2026-04-22 18:06 | 12.79667 | 121.93675 | 23893 ft | 384 kts | 326° |
| 2026-04-22 18:06 | 12.81955 | 121.92085 | 23891 ft | 408 kts | 326° |
| 2026-04-22 18:06 | 12.83542 | 121.90983 | 23893 ft | 423 kts | 327° |
| 2026-04-22 18:07 | 12.86077 | 121.89224 | 23892 ft | 443 kts | 326° |
| 2026-04-22 18:07 | 12.88670 | 121.87421 | 23893 ft | 460 kts | 326° |
| 2026-04-22 18:07 | 12.91378 | 121.85536 | 23891 ft | 465 kts | 326° |
| 2026-04-22 18:07 | 12.93995 | 121.83712 | 23892 ft | 465 kts | 326° |
| 2026-04-22 18:08 | 12.96678 | 121.81837 | 23890 ft | 465 kts | 326° |
| 2026-04-22 18:08 | 12.99354 | 121.79967 | 23892 ft | 465 kts | 326° |
| 2026-04-22 18:08 | 13.02030 | 121.78095 | 23892 ft | 465 kts | 326° |
| 2026-04-22 18:08 | 13.04707 | 121.76223 | 23890 ft | 465 kts | 326° |
| 2026-04-22 18:09 | 13.07378 | 121.74355 | 23895 ft | 465 kts | 326° |
| 2026-04-22 18:09 | 13.10048 | 121.72489 | 23774 ft | 464 kts | 326° |
| 2026-04-22 18:09 | 13.12719 | 121.70622 | 23506 ft | 462 kts | 326° |
| 2026-04-22 18:09 | 13.15373 | 121.68766 | 23179 ft | 460 kts | 326° |
| 2026-04-22 18:10 | 13.18006 | 121.66924 | 22848 ft | 458 kts | 326° |
| 2026-04-22 18:10 | 13.20609 | 121.65102 | 22523 ft | 456 kts | 326° |
| 2026-04-22 18:10 | 13.23229 | 121.63269 | 22201 ft | 453 kts | 326° |
| 2026-04-22 18:10 | 13.25856 | 121.61431 | 21954 ft | 451 kts | 326° |
| 2026-04-22 18:11 | 13.28424 | 121.59633 | 21898 ft | 451 kts | 326° |
| 2026-04-22 18:11 | 13.31018 | 121.57817 | 21897 ft | 451 kts | 326° |
| 2026-04-22 18:11 | 13.33598 | 121.56010 | 21899 ft | 451 kts | 326° |
| 2026-04-22 18:11 | 13.36196 | 121.54191 | 21897 ft | 451 kts | 326° |
| 2026-04-22 18:12 | 13.38790 | 121.52373 | 21898 ft | 451 kts | 326° |
| 2026-04-22 18:12 | 13.41382 | 121.50556 | 21900 ft | 451 kts | 326° |
| 2026-04-22 18:12 | 13.43972 | 121.48741 | 21899 ft | 451 kts | 326° |
| 2026-04-22 18:12 | 13.46570 | 121.46919 | 21902 ft | 451 kts | 326° |
| 2026-04-22 18:13 | 13.49171 | 121.45094 | 21902 ft | 451 kts | 326° |
| 2026-04-22 18:13 | 13.51743 | 121.43289 | 21900 ft | 451 kts | 326° |
| 2026-04-22 18:13 | 13.54330 | 121.41473 | 21902 ft | 451 kts | 326° |
| 2026-04-22 18:13 | 13.56936 | 121.39642 | 21897 ft | 451 kts | 326° |
| 2026-04-22 18:14 | 13.59493 | 121.37818 | 21899 ft | 451 kts | 325° |
| 2026-04-22 18:14 | 13.62061 | 121.35916 | 21901 ft | 451 kts | 324° |
| 2026-04-22 18:14 | 13.64581 | 121.34021 | 21905 ft | 451 kts | 324° |
| 2026-04-22 18:14 | 13.67099 | 121.32121 | 22072 ft | 452 kts | 324° |
| 2026-04-22 18:15 | 13.69663 | 121.30190 | 22019 ft | 451 kts | 324° |
| 2026-04-22 18:15 | 13.72175 | 121.28307 | 21702 ft | 450 kts | 324° |
| 2026-04-22 18:15 | 13.74691 | 121.26427 | 21199 ft | 446 kts | 324° |
| 2026-04-22 18:15 | 13.77209 | 121.24547 | 20620 ft | 442 kts | 324° |
| 2026-04-22 18:16 | 13.79686 | 121.22698 | 20068 ft | 440 kts | 324° |
| 2026-04-22 18:16 | 13.82137 | 121.20868 | 19520 ft | 437 kts | 324° |
| 2026-04-22 18:16 | 13.84602 | 121.19028 | 18961 ft | 434 kts | 324° |
| 2026-04-22 18:16 | 13.87030 | 121.17214 | 18411 ft | 432 kts | 324° |
| 2026-04-22 18:17 | 13.89436 | 121.15415 | 17814 ft | 428 kts | 324° |
| 2026-04-22 18:17 | 13.91847 | 121.13610 | 17181 ft | 423 kts | 325° |
| 2026-04-22 18:17 | 13.94230 | 121.11827 | 16557 ft | 419 kts | 325° |
| 2026-04-22 18:17 | 13.96547 | 121.10094 | 15967 ft | 415 kts | 325° |
| 2026-04-22 18:18 | 13.98884 | 121.08345 | 15375 ft | 411 kts | 325° |
| 2026-04-22 18:18 | 14.01182 | 121.06626 | 14794 ft | 406 kts | 325° |
| 2026-04-22 18:18 | 14.03437 | 121.04936 | 14230 ft | 398 kts | 325° |
| 2026-04-22 18:18 | 14.05620 | 121.03300 | 13661 ft | 376 kts | 326° |
| 2026-04-22 18:19 | 14.07668 | 121.01763 | 13035 ft | 357 kts | 326° |
| 2026-04-22 18:19 | 14.09645 | 121.00280 | 12406 ft | 341 kts | 326° |
| 2026-04-22 18:19 | 14.11517 | 120.98878 | 11798 ft | 328 kts | 326° |
| 2026-04-22 18:19 | 14.13374 | 120.97489 | 11187 ft | 317 kts | 326° |
| 2026-04-22 18:20 | 14.15125 | 120.96177 | 10604 ft | 308 kts | 326° |
| 2026-04-22 18:20 | 14.16705 | 120.94750 | 10024 ft | 303 kts | 309° |
| 2026-04-22 18:20 | 14.17655 | 120.92841 | 9427 ft | 298 kts | 285° |
| 2026-04-22 18:20 | 14.18042 | 120.90759 | 8804 ft | 293 kts | 281° |
| 2026-04-22 18:21 | 14.18372 | 120.88702 | 8189 ft | 289 kts | 281° |
| 2026-04-22 18:21 | 14.18717 | 120.86681 | 7588 ft | 284 kts | 282° |
| 2026-04-22 18:21 | 14.19081 | 120.84692 | 6994 ft | 281 kts | 282° |
| 2026-04-22 18:21 | 14.19455 | 120.82730 | 6418 ft | 277 kts | 283° |
| 2026-04-22 18:22 | 14.19824 | 120.80818 | 6094 ft | 266 kts | 283° |
| 2026-04-22 18:22 | 14.20175 | 120.78999 | 5986 ft | 249 kts | 283° |
| 2026-04-22 18:22 | 14.20486 | 120.77324 | 5976 ft | 241 kts | 278° |
| 2026-04-22 18:22 | 14.20340 | 120.75615 | 5979 ft | 240 kts | 249° |
| 2026-04-22 18:23 | 14.19545 | 120.74104 | 5978 ft | 240 kts | 238° |
| 2026-04-22 18:23 | 14.18671 | 120.72646 | 5981 ft | 240 kts | 239° |
| 2026-04-22 18:23 | 14.17810 | 120.71177 | 5978 ft | 239 kts | 240° |
| 2026-04-22 18:24 | 14.16135 | 120.68215 | 5990 ft | 238 kts | 241° |
| 2026-04-22 18:24 | 14.15314 | 120.66748 | 5977 ft | 238 kts | 241° |
| 2026-04-22 18:24 | 14.13659 | 120.63801 | 5976 ft | 239 kts | 241° |
| 2026-04-22 18:25 | 14.12820 | 120.62313 | 5977 ft | 239 kts | 241° |
| 2026-04-22 18:25 | 14.11984 | 120.60831 | 5975 ft | 238 kts | 241° |
| 2026-04-22 18:25 | 14.11231 | 120.59353 | 5976 ft | 223 kts | 253° |
| 2026-04-22 18:26 | 14.11898 | 120.56446 | 5972 ft | 216 kts | 315° |
| 2026-04-22 18:26 | 14.13137 | 120.55582 | 5971 ft | 217 kts | 332° |
| 2026-04-22 18:26 | 14.14461 | 120.54836 | 5966 ft | 220 kts | 332° |
| 2026-04-22 18:26 | 14.15834 | 120.54037 | 5972 ft | 228 kts | 330° |
| 2026-04-22 18:27 | 14.17192 | 120.53225 | 5970 ft | 229 kts | 329° |
| 2026-04-22 18:27 | 14.18568 | 120.52389 | 5970 ft | 229 kts | 329° |
| 2026-04-22 18:27 | 14.19950 | 120.51556 | 5968 ft | 229 kts | 333° |
| 2026-04-22 18:27 | 14.21463 | 120.51192 | 5975 ft | 230 kts | 4° |
| 2026-04-22 18:28 | 14.22983 | 120.51712 | 5975 ft | 233 kts | 36° |
| 2026-04-22 18:28 | 14.24053 | 120.52971 | 5973 ft | 233 kts | 60° |
| 2026-04-22 18:28 | 14.24784 | 120.54450 | 5969 ft | 238 kts | 65° |
| 2026-04-22 18:28 | 14.25492 | 120.56034 | 5975 ft | 244 kts | 65° |
| 2026-04-22 18:29 | 14.26229 | 120.57591 | 5974 ft | 242 kts | 63° |
| 2026-04-22 18:29 | 14.27024 | 120.59143 | 5973 ft | 243 kts | 61° |
| 2026-04-22 18:29 | 14.27872 | 120.60711 | 5982 ft | 261 kts | 60° |
| 2026-04-22 18:29 | 14.28779 | 120.62339 | 5978 ft | 261 kts | 59° |
| 2026-04-22 18:30 | 14.29694 | 120.63964 | 5980 ft | 262 kts | 59° |
| 2026-04-22 18:30 | 14.31523 | 120.67209 | 5979 ft | 262 kts | 59° |
| 2026-04-22 18:30 | 14.32430 | 120.68824 | 5979 ft | 261 kts | 59° |
| 2026-04-22 18:31 | 14.33341 | 120.70451 | 5977 ft | 257 kts | 59° |
| 2026-04-22 18:31 | 14.34218 | 120.72024 | 5987 ft | 254 kts | 59° |
| 2026-04-22 18:31 | 14.35091 | 120.73594 | 5988 ft | 253 kts | 59° |
| 2026-04-22 18:31 | 14.35971 | 120.75181 | 5989 ft | 254 kts | 59° |
| 2026-04-22 18:32 | 14.36760 | 120.76602 | 5985 ft | 242 kts | 59° |
| 2026-04-22 18:32 | 14.37614 | 120.78141 | 5994 ft | 241 kts | 59° |
| 2026-04-22 18:32 | 14.38451 | 120.79647 | 5853 ft | 241 kts | 59° |
| 2026-04-22 18:32 | 14.39284 | 120.81142 | 5499 ft | 238 kts | 59° |
| 2026-04-22 18:33 | 14.40044 | 120.82623 | 5135 ft | 234 kts | 71° |
| 2026-04-22 18:33 | 14.40167 | 120.84268 | 4778 ft | 229 kts | 102° |
| 2026-04-22 18:33 | 14.39458 | 120.85692 | 4414 ft | 226 kts | 134° |
| 2026-04-22 18:33 | 14.38139 | 120.86475 | 4104 ft | 215 kts | 167° |
| 2026-04-22 18:34 | 14.36608 | 120.86360 | 3739 ft | 224 kts | 200° |
| 2026-04-22 18:34 | 14.35314 | 120.85505 | 3382 ft | 222 kts | 224° |
| 2026-04-22 18:34 | 14.34454 | 120.84188 | 3083 ft | 223 kts | 242° |
| 2026-04-22 18:34 | 14.33743 | 120.82773 | 2986 ft | 218 kts | 239° |
| 2026-04-22 18:35 | 14.33014 | 120.81421 | 2986 ft | 216 kts | 238° |
| 2026-04-22 18:35 | 14.32298 | 120.80086 | 2989 ft | 216 kts | 238° |
| 2026-04-22 18:35 | 14.31564 | 120.78714 | 2983 ft | 215 kts | 238° |
| 2026-04-22 18:35 | 14.30839 | 120.77355 | 2984 ft | 215 kts | 238° |
| 2026-04-22 18:36 | 14.30130 | 120.76022 | 2984 ft | 217 kts | 238° |
| 2026-04-22 18:36 | 14.29358 | 120.74573 | 2982 ft | 228 kts | 238° |
| 2026-04-22 18:36 | 14.28600 | 120.73160 | 2980 ft | 229 kts | 238° |
| 2026-04-22 18:36 | 14.27829 | 120.71719 | 2979 ft | 228 kts | 238° |
| 2026-04-22 18:37 | 14.27065 | 120.70287 | 2979 ft | 228 kts | 238° |
| 2026-04-22 18:37 | 14.26299 | 120.68850 | 2983 ft | 228 kts | 238° |
| 2026-04-22 18:37 | 14.25794 | 120.67902 | 2972 ft | 228 kts | 238° |
| 2026-04-22 18:37 | 14.25052 | 120.65883 | 2971 ft | 219 kts | 266° |
| 2026-04-22 18:38 | 14.25350 | 120.64369 | 2974 ft | 218 kts | 287° |
| 2026-04-22 18:38 | 14.25858 | 120.62923 | 2977 ft | 217 kts | 295° |
| 2026-04-22 18:38 | 14.26854 | 120.61786 | 2972 ft | 204 kts | 331° |
| 2026-04-22 18:39 | 14.29538 | 120.61989 | 2976 ft | 212 kts | 39° |
| 2026-04-22 18:39 | 14.30406 | 120.63197 | 2976 ft | 212 kts | 65° |
| 2026-04-22 18:39 | 14.31039 | 120.64576 | 2977 ft | 212 kts | 65° |
| 2026-04-22 18:39 | 14.31696 | 120.65958 | 2980 ft | 211 kts | 63° |
| 2026-04-22 18:40 | 14.32369 | 120.67314 | 2977 ft | 212 kts | 63° |
| 2026-04-22 18:40 | 14.33053 | 120.68663 | 2979 ft | 211 kts | 62° |
| 2026-04-22 18:40 | 14.33509 | 120.69574 | 2980 ft | 212 kts | 63° |
| 2026-04-22 18:40 | 14.34165 | 120.70920 | 2980 ft | 212 kts | 62° |
| 2026-04-22 18:41 | 14.34883 | 120.72302 | 2981 ft | 221 kts | 60° |
| 2026-04-22 18:41 | 14.35636 | 120.73693 | 2983 ft | 222 kts | 60° |
| 2026-04-22 18:41 | 14.36385 | 120.75084 | 2988 ft | 222 kts | 60° |
| 2026-04-22 18:41 | 14.37138 | 120.76480 | 2989 ft | 223 kts | 60° |
| 2026-04-22 18:42 | 14.37894 | 120.77885 | 2990 ft | 223 kts | 60° |
| 2026-04-22 18:42 | 14.38647 | 120.79284 | 2992 ft | 223 kts | 60° |
| 2026-04-22 18:42 | 14.39399 | 120.80682 | 2995 ft | 222 kts | 60° |
| 2026-04-22 18:42 | 14.40131 | 120.82045 | 2994 ft | 212 kts | 60° |
| 2026-04-22 18:43 | 14.40850 | 120.83378 | 2994 ft | 212 kts | 60° |
| 2026-04-22 18:43 | 14.41565 | 120.84707 | 2997 ft | 212 kts | 60° |
| 2026-04-22 18:43 | 14.42271 | 120.86018 | 2993 ft | 213 kts | 60° |
| 2026-04-22 18:43 | 14.42987 | 120.87351 | 2831 ft | 208 kts | 60° |
| 2026-04-22 18:44 | 14.43661 | 120.88605 | 2543 ft | 195 kts | 60° |
| 2026-04-22 18:44 | 14.44309 | 120.89810 | 2296 ft | 183 kts | 60° |
| 2026-04-22 18:44 | 14.44934 | 120.90972 | 2057 ft | 186 kts | 60° |
| 2026-04-22 18:44 | 14.45556 | 120.92128 | 1817 ft | 183 kts | 60° |
| 2026-04-22 18:45 | 14.46166 | 120.93262 | 1589 ft | 182 kts | 60° |
| 2026-04-22 18:45 | 14.46778 | 120.94398 | 1338 ft | 176 kts | 60° |
| 2026-04-22 18:45 | 14.47328 | 120.95423 | 1134 ft | 150 kts | 60° |
| 2026-04-22 18:45 | 14.47829 | 120.96355 | 940 ft | 147 kts | 60° |
| 2026-04-22 18:46 | 14.48322 | 120.97279 | 726 ft | 146 kts | 61° |
| 2026-04-22 18:46 | 14.48801 | 120.98198 | 508 ft | 145 kts | 59° |
| 2026-04-22 18:46 | 14.49296 | 120.99100 | 331 ft | 144 kts | 59° |
| 2026-04-22 18:46 | 14.49782 | 120.99994 | 152 ft | 145 kts | 59° |
| 2026-04-22 18:47 | 14.50267 | 121.00878 | 63 ft | 143 kts | 60° |
| 2026-04-22 18:47 | 14.50662 | 121.01580 | 65 ft | 58 kts | 60° |
| 2026-04-22 18:47 | 14.50806 | 121.01849 | 61 ft | 21 kts | 60° |
| 2026-04-22 18:47 | 14.50845 | 121.01919 | 65 ft | 6 kts | 60° |
| 2026-04-22 18:48 | 14.50882 | 121.01979 | 67 ft | 11 kts | 48° |
| 2026-04-22 18:48 | 14.50970 | 121.01984 | 65 ft | 17 kts | 326° |
| 2026-04-22 18:48 | 14.51006 | 121.01944 | 61 ft | 3 kts | 310° |
| 2026-04-22 18:48 | 14.51007 | 121.01940 | 62 ft | 0 kts | 296° |
| 2026-04-22 18:49 | 14.51003 | 121.01936 | 63 ft | 0 kts | 255° |
| 2026-04-22 18:49 | 14.50993 | 121.01914 | 64 ft | 6 kts | 248° |
| 2026-04-22 18:49 | 14.50983 | 121.01889 | 65 ft | 7 kts | 248° |
| 2026-04-22 18:49 | 14.50947 | 121.01820 | 66 ft | 1 kts | 239° |
| 2026-04-22 18:51 | 14.50942 | 121.01811 | 64 ft | 11 kts | 239° |
| 2026-04-22 18:51 | 14.50889 | 121.01715 | 63 ft | 4 kts | 246° |
| 2026-04-22 18:51 | 14.50895 | 121.01671 | 63 ft | 11 kts | 296° |
| 2026-04-22 18:52 | 14.50915 | 121.01623 | 64 ft | 11 kts | 279° |
| 2026-04-22 18:52 | 14.50905 | 121.01591 | 61 ft | 0 kts | 242° |
| 2026-04-22 18:52 | 14.50891 | 121.01567 | 64 ft | 0 kts | 240° |
| 2026-04-22 18:52 | 14.50872 | 121.01531 | 60 ft | 10 kts | 240° |
| 2026-04-22 18:53 | 14.50869 | 121.01526 | 66 ft | 0 kts | 240° |
| 2026-04-22 18:53 | 14.50850 | 121.01493 | 63 ft | 8 kts | 239° |
| 2026-04-22 18:53 | 14.50827 | 121.01453 | 64 ft | 14 kts | 239° |
| 2026-04-22 18:53 | 14.50804 | 121.01414 | 66 ft | 7 kts | 239° |
| 2026-04-22 18:54 | 14.50792 | 121.01391 | 67 ft | 1 kts | 243° |
| 2026-04-22 18:54 | 14.50796 | 121.01372 | 67 ft | 1 kts | 305° |
| 2026-04-22 18:54 | 14.50813 | 121.01366 | 66 ft | 6 kts | 331° |
| 2026-04-22 18:54 | 14.50837 | 121.01352 | 65 ft | 4 kts | 331° |
| 2026-04-22 18:55 | 14.50855 | 121.01341 | 60 ft | 4 kts | 329° |
| 2026-04-22 18:55 | 14.50861 | 121.01338 | 65 ft | 0 kts | 329° |